Terminal Aerodrome Forecast
Issued by NWS Atlanta, GA

Home | Current Version | Previous Version | Text Only | Print | Product List | Glossary On
Versions: 1 2 3 4 5 6 7 8 9 10 11 12 13 14 15 16 17 18 19 20 21 22 23 24 25 26 27 28 29 30 31 32 33 34 35 36
000
FTUS42 KFFC 042203 AAB
TAFAHN
TAF AMD
KAHN 042203Z 0422/0518 20010G18KT P6SM SCT035 BKN050
     FM050000 21009KT P6SM BKN025
     FM050600 20008KT 6SM BR OVC006
     FM051000 23006KT 2SM -RA BR OVC004
     FM051700 32010KT 6SM -RA OVC008=

USA.gov is the U.S. government's official web portal to all federal, state and local government web resources and services.